sensor_id;sensor_type;location;lat;lon;timestamp;temperature;humidity
2647;DHT22;1333;50.958;6.770;2023-05-13T00:02:12;13.70;99.90
2647;DHT22;1333;50.958;6.770;2023-05-13T00:04:38;13.70;99.90
2647;DHT22;1333;50.958;6.770;2023-05-13T00:07:04;13.70;99.90
2647;DHT22;1333;50.958;6.770;2023-05-13T00:09:29;13.70;99.90
2647;DHT22;1333;50.958;6.770;2023-05-13T00:11:55;13.80;99.90
2647;DHT22;1333;50.958;6.770;2023-05-13T00:14:20;13.80;99.90
2647;DHT22;1333;50.958;6.770;2023-05-13T00:16:46;13.80;99.90
2647;DHT22;1333;50.958;6.770;2023-05-13T00:19:12;13.80;99.90
2647;DHT22;1333;50.958;6.770;2023-05-13T00:21:37;13.90;99.90
2647;DHT22;1333;50.958;6.770;2023-05-13T00:24:04;13.90;99.90
2647;DHT22;1333;50.958;6.770;2023-05-13T00:26:29;13.90;99.90
2647;DHT22;1333;50.958;6.770;2023-05-13T00:28:55;13.90;99.90
2647;DHT22;1333;50.958;6.770;2023-05-13T00:31:20;13.90;99.90
2647;DHT22;1333;50.958;6.770;2023-05-13T00:33:46;13.90;99.90
2647;DHT22;1333;50.958;6.770;2023-05-13T00:36:11;13.90;99.90
2647;DHT22;1333;50.958;6.770;2023-05-13T00:38:37;13.80;99.90
2647;DHT22;1333;50.958;6.770;2023-05-13T00:41:03;13.80;99.90
2647;DHT22;1333;50.958;6.770;2023-05-13T00:43:29;13.80;99.90
2647;DHT22;1333;50.958;6.770;2023-05-13T00:45:55;13.80;99.90
2647;DHT22;1333;50.958;6.770;2023-05-13T00:48:22;13.80;99.90
2647;DHT22;1333;50.958;6.770;2023-05-13T00:50:48;13.70;99.90
2647;DHT22;1333;50.958;6.770;2023-05-13T00:53:14;13.70;99.90
2647;DHT22;1333;50.958;6.770;2023-05-13T00:55:42;13.60;99.90
2647;DHT22;1333;50.958;6.770;2023-05-13T00:58:07;13.60;99.90
2647;DHT22;1333;50.958;6.770;2023-05-13T01:00:38;13.50;99.90
2647;DHT22;1333;50.958;6.770;2023-05-13T01:03:11;13.40;99.90
2647;DHT22;1333;50.958;6.770;2023-05-13T01:06:07;13.40;99.90
2647;DHT22;1333;50.958;6.770;2023-05-13T01:11:07;13.20;99.90
2647;DHT22;1333;50.958;6.770;2023-05-13T01:13:36;13.20;99.90
2647;DHT22;1333;50.958;6.770;2023-05-13T01:16:29;13.20;99.90
2647;DHT22;1333;50.958;6.770;2023-05-13T01:18:58;13.20;99.90
2647;DHT22;1333;50.958;6.770;2023-05-13T01:21:26;13.20;99.90
2647;DHT22;1333;50.958;6.770;2023-05-13T01:23:52;13.20;99.90
2647;DHT22;1333;50.958;6.770;2023-05-13T01:26:19;13.20;99.90
2647;DHT22;1333;50.958;6.770;2023-05-13T01:28:44;13.20;99.90
2647;DHT22;1333;50.958;6.770;2023-05-13T01:31:12;13.20;99.90
2647;DHT22;1333;50.958;6.770;2023-05-13T01:33:38;13.20;99.90
2647;DHT22;1333;50.958;6.770;2023-05-13T01:36:05;13.30;99.90
2647;DHT22;1333;50.958;6.770;2023-05-13T01:38:34;13.30;99.90
2647;DHT22;1333;50.958;6.770;2023-05-13T01:41:00;13.30;99.90
2647;DHT22;1333;50.958;6.770;2023-05-13T01:43:25;13.30;99.90
2647;DHT22;1333;50.958;6.770;2023-05-13T01:45:51;13.30;99.90
2647;DHT22;1333;50.958;6.770;2023-05-13T01:48:17;13.30;99.90
2647;DHT22;1333;50.958;6.770;2023-05-13T01:50:43;13.30;99.90
2647;DHT22;1333;50.958;6.770;2023-05-13T01:53:09;13.40;99.90
2647;DHT22;1333;50.958;6.770;2023-05-13T01:55:34;13.40;99.90
2647;DHT22;1333;50.958;6.770;2023-05-13T01:58:00;13.40;99.90
2647;DHT22;1333;50.958;6.770;2023-05-13T02:00:25;13.40;99.90
2647;DHT22;1333;50.958;6.770;2023-05-13T02:02:51;13.30;99.90
2647;DHT22;1333;50.958;6.770;2023-05-13T02:05:16;13.30;99.90
2647;DHT22;1333;50.958;6.770;2023-05-13T02:07:42;13.20;99.90
2647;DHT22;1333;50.958;6.770;2023-05-13T02:10:08;13.20;99.90
2647;DHT22;1333;50.958;6.770;2023-05-13T02:12:34;13.10;99.90
2647;DHT22;1333;50.958;6.770;2023-05-13T02:14:59;13.00;99.90
2647;DHT22;1333;50.958;6.770;2023-05-13T02:17:25;13.00;99.90
2647;DHT22;1333;50.958;6.770;2023-05-13T02:19:51;12.90;99.90
2647;DHT22;1333;50.958;6.770;2023-05-13T02:22:16;12.90;99.90
2647;DHT22;1333;50.958;6.770;2023-05-13T02:24:41;12.80;99.90
2647;DHT22;1333;50.958;6.770;2023-05-13T02:27:07;12.80;99.90
2647;DHT22;1333;50.958;6.770;2023-05-13T02:29:33;12.70;99.90
2647;DHT22;1333;50.958;6.770;2023-05-13T02:31:59;12.70;99.90
2647;DHT22;1333;50.958;6.770;2023-05-13T02:34:24;12.70;99.90
2647;DHT22;1333;50.958;6.770;2023-05-13T02:36:50;12.60;99.90
2647;DHT22;1333;50.958;6.770;2023-05-13T02:39:16;12.60;99.90
2647;DHT22;1333;50.958;6.770;2023-05-13T02:41:42;12.60;99.90
2647;DHT22;1333;50.958;6.770;2023-05-13T02:44:09;12.50;99.90
2647;DHT22;1333;50.958;6.770;2023-05-13T02:46:34;12.50;99.90
2647;DHT22;1333;50.958;6.770;2023-05-13T02:49:00;12.50;99.90
2647;DHT22;1333;50.958;6.770;2023-05-13T02:51:26;12.50;99.90
2647;DHT22;1333;50.958;6.770;2023-05-13T02:53:52;12.50;99.90
2647;DHT22;1333;50.958;6.770;2023-05-13T02:56:17;12.60;99.90
2647;DHT22;1333;50.958;6.770;2023-05-13T02:58:43;12.50;99.90
2647;DHT22;1333;50.958;6.770;2023-05-13T03:01:09;12.50;99.90
2647;DHT22;1333;50.958;6.770;2023-05-13T03:03:35;12.50;99.90
2647;DHT22;1333;50.958;6.770;2023-05-13T03:06:00;12.50;99.90
2647;DHT22;1333;50.958;6.770;2023-05-13T03:08:26;12.40;99.90
2647;DHT22;1333;50.958;6.770;2023-05-13T03:10:51;12.40;99.90
2647;DHT22;1333;50.958;6.770;2023-05-13T03:13:17;12.40;99.90
2647;DHT22;1333;50.958;6.770;2023-05-13T03:15:42;12.40;99.90
2647;DHT22;1333;50.958;6.770;2023-05-13T03:18:08;12.30;99.90
2647;DHT22;1333;50.958;6.770;2023-05-13T03:20:34;12.30;99.90
2647;DHT22;1333;50.958;6.770;2023-05-13T03:22:59;12.30;99.90
2647;DHT22;1333;50.958;6.770;2023-05-13T03:25:25;12.30;99.90
2647;DHT22;1333;50.958;6.770;2023-05-13T03:27:50;12.20;99.90
2647;DHT22;1333;50.958;6.770;2023-05-13T03:30:16;12.20;99.90
2647;DHT22;1333;50.958;6.770;2023-05-13T03:32:41;12.20;99.90
2647;DHT22;1333;50.958;6.770;2023-05-13T03:35:07;12.20;99.90
2647;DHT22;1333;50.958;6.770;2023-05-13T03:37:33;12.20;99.90
2647;DHT22;1333;50.958;6.770;2023-05-13T03:39:58;12.20;99.90
2647;DHT22;1333;50.958;6.770;2023-05-13T03:42:23;12.10;99.90
2647;DHT22;1333;50.958;6.770;2023-05-13T03:44:50;12.10;99.90
2647;DHT22;1333;50.958;6.770;2023-05-13T03:47:16;12.10;99.90
2647;DHT22;1333;50.958;6.770;2023-05-13T03:49:41;12.00;99.90
2647;DHT22;1333;50.958;6.770;2023-05-13T03:52:07;12.00;99.90
2647;DHT22;1333;50.958;6.770;2023-05-13T03:54:33;12.00;99.90
2647;DHT22;1333;50.958;6.770;2023-05-13T03:56:59;11.90;99.90
2647;DHT22;1333;50.958;6.770;2023-05-13T03:59:24;11.90;99.90
2647;DHT22;1333;50.958;6.770;2023-05-13T04:01:50;11.90;99.90
2647;DHT22;1333;50.958;6.770;2023-05-13T04:04:15;11.90;99.90
2647;DHT22;1333;50.958;6.770;2023-05-13T04:06:41;11.90;99.90
2647;DHT22;1333;50.958;6.770;2023-05-13T04:09:06;11.90;99.90
2647;DHT22;1333;50.958;6.770;2023-05-13T04:11:32;11.90;99.90
2647;DHT22;1333;50.958;6.770;2023-05-13T04:13:58;11.90;99.90
2647;DHT22;1333;50.958;6.770;2023-05-13T04:16:23;11.90;99.90
2647;DHT22;1333;50.958;6.770;2023-05-13T04:18:50;11.90;99.90
2647;DHT22;1333;50.958;6.770;2023-05-13T04:21:15;11.90;99.90
2647;DHT22;1333;50.958;6.770;2023-05-13T04:23:41;11.90;99.90
2647;DHT22;1333;50.958;6.770;2023-05-13T04:26:07;11.90;99.90
2647;DHT22;1333;50.958;6.770;2023-05-13T04:28:32;11.90;99.90
2647;DHT22;1333;50.958;6.770;2023-05-13T04:30:59;12.00;99.90
2647;DHT22;1333;50.958;6.770;2023-05-13T04:33:25;12.00;99.90
2647;DHT22;1333;50.958;6.770;2023-05-13T04:35:51;12.00;99.90
2647;DHT22;1333;50.958;6.770;2023-05-13T04:38:16;12.10;99.90
2647;DHT22;1333;50.958;6.770;2023-05-13T04:40:43;12.20;99.90
2647;DHT22;1333;50.958;6.770;2023-05-13T04:43:10;12.30;99.90
2647;DHT22;1333;50.958;6.770;2023-05-13T04:45:35;12.30;99.90
2647;DHT22;1333;50.958;6.770;2023-05-13T04:48:01;12.50;99.90
2647;DHT22;1333;50.958;6.770;2023-05-13T04:50:26;12.60;99.90
2647;DHT22;1333;50.958;6.770;2023-05-13T04:52:52;12.80;99.90
2647;DHT22;1333;50.958;6.770;2023-05-13T04:55:19;13.00;99.90
2647;DHT22;1333;50.958;6.770;2023-05-13T04:57:44;13.10;99.90
2647;DHT22;1333;50.958;6.770;2023-05-13T05:00:11;13.30;99.90
2647;DHT22;1333;50.958;6.770;2023-05-13T05:02:36;13.40;99.90
2647;DHT22;1333;50.958;6.770;2023-05-13T05:05:02;13.60;99.90
2647;DHT22;1333;50.958;6.770;2023-05-13T05:07:28;13.70;99.90
2647;DHT22;1333;50.958;6.770;2023-05-13T05:09:53;13.90;99.90
2647;DHT22;1333;50.958;6.770;2023-05-13T05:12:19;14.00;99.90
2647;DHT22;1333;50.958;6.770;2023-05-13T05:14:44;14.30;99.90
2647;DHT22;1333;50.958;6.770;2023-05-13T05:17:10;14.50;99.90
2647;DHT22;1333;50.958;6.770;2023-05-13T05:19:35;14.70;99.90
2647;DHT22;1333;50.958;6.770;2023-05-13T05:22:01;15.10;99.90
2647;DHT22;1333;50.958;6.770;2023-05-13T05:24:27;15.40;99.90
2647;DHT22;1333;50.958;6.770;2023-05-13T05:26:53;15.60;99.90
2647;DHT22;1333;50.958;6.770;2023-05-13T05:29:18;15.90;99.90
2647;DHT22;1333;50.958;6.770;2023-05-13T05:31:44;16.30;99.90
2647;DHT22;1333;50.958;6.770;2023-05-13T05:34:10;16.70;99.90
2647;DHT22;1333;50.958;6.770;2023-05-13T05:36:36;17.30;99.90
2647;DHT22;1333;50.958;6.770;2023-05-13T05:39:01;17.90;99.90
2647;DHT22;1333;50.958;6.770;2023-05-13T05:41:27;18.60;99.90
2647;DHT22;1333;50.958;6.770;2023-05-13T05:43:52;19.30;99.90
2647;DHT22;1333;50.958;6.770;2023-05-13T05:46:18;20.00;99.90
2647;DHT22;1333;50.958;6.770;2023-05-13T05:48:44;20.70;99.90
2647;DHT22;1333;50.958;6.770;2023-05-13T05:51:09;21.50;99.90
2647;DHT22;1333;50.958;6.770;2023-05-13T05:53:35;22.30;99.90
2647;DHT22;1333;50.958;6.770;2023-05-13T05:56:05;23.00;99.90
2647;DHT22;1333;50.958;6.770;2023-05-13T05:58:31;23.80;99.90
2647;DHT22;1333;50.958;6.770;2023-05-13T06:00:56;24.60;99.90
2647;DHT22;1333;50.958;6.770;2023-05-13T06:03:22;25.20;98.60
2647;DHT22;1333;50.958;6.770;2023-05-13T06:05:48;25.90;92.30
2647;DHT22;1333;50.958;6.770;2023-05-13T06:08:14;26.50;87.70
2647;DHT22;1333;50.958;6.770;2023-05-13T06:10:39;27.20;82.50
2647;DHT22;1333;50.958;6.770;2023-05-13T06:13:05;27.80;75.60
2647;DHT22;1333;50.958;6.770;2023-05-13T06:15:30;28.20;70.50
2647;DHT22;1333;50.958;6.770;2023-05-13T06:17:56;28.40;66.20
2647;DHT22;1333;50.958;6.770;2023-05-13T06:20:22;28.10;62.30
2647;DHT22;1333;50.958;6.770;2023-05-13T06:22:47;27.80;62.90
2647;DHT22;1333;50.958;6.770;2023-05-13T06:25:13;27.60;62.90
2647;DHT22;1333;50.958;6.770;2023-05-13T06:27:39;27.40;61.50
2647;DHT22;1333;50.958;6.770;2023-05-13T06:30:05;27.40;62.60
2647;DHT22;1333;50.958;6.770;2023-05-13T06:32:31;27.40;61.90
2647;DHT22;1333;50.958;6.770;2023-05-13T06:34:56;27.50;62.00
2647;DHT22;1333;50.958;6.770;2023-05-13T06:37:22;27.60;60.80
2647;DHT22;1333;50.958;6.770;2023-05-13T06:39:47;28.10;61.10
2647;DHT22;1333;50.958;6.770;2023-05-13T06:42:13;29.20;60.60
2647;DHT22;1333;50.958;6.770;2023-05-13T06:44:38;30.00;56.20
2647;DHT22;1333;50.958;6.770;2023-05-13T06:47:04;30.10;54.80
2647;DHT22;1333;50.958;6.770;2023-05-13T06:49:32;30.40;54.40
2647;DHT22;1333;50.958;6.770;2023-05-13T06:51:57;30.80;53.70
2647;DHT22;1333;50.958;6.770;2023-05-13T06:54:23;31.40;52.40
2647;DHT22;1333;50.958;6.770;2023-05-13T06:56:50;32.20;51.80
2647;DHT22;1333;50.958;6.770;2023-05-13T06:59:16;33.00;49.50
2647;DHT22;1333;50.958;6.770;2023-05-13T07:01:41;33.70;47.90
2647;DHT22;1333;50.958;6.770;2023-05-13T07:04:07;34.50;47.40
2647;DHT22;1333;50.958;6.770;2023-05-13T07:06:33;35.40;44.90
2647;DHT22;1333;50.958;6.770;2023-05-13T07:08:58;36.00;42.00
2647;DHT22;1333;50.958;6.770;2023-05-13T07:11:24;35.90;41.00
2647;DHT22;1333;50.958;6.770;2023-05-13T07:13:49;35.30;40.70
2647;DHT22;1333;50.958;6.770;2023-05-13T07:16:16;34.40;41.00
2647;DHT22;1333;50.958;6.770;2023-05-13T07:18:42;34.00;42.20
2647;DHT22;1333;50.958;6.770;2023-05-13T07:21:07;34.30;42.70
2647;DHT22;1333;50.958;6.770;2023-05-13T07:23:33;35.30;42.70
2647;DHT22;1333;50.958;6.770;2023-05-13T07:26:00;36.50;41.60
2647;DHT22;1333;50.958;6.770;2023-05-13T07:28:25;37.80;40.40
2647;DHT22;1333;50.958;6.770;2023-05-13T07:30:51;39.00;39.00
2647;DHT22;1333;50.958;6.770;2023-05-13T07:33:18;40.10;37.00
2647;DHT22;1333;50.958;6.770;2023-05-13T07:35:43;41.00;35.80
2647;DHT22;1333;50.958;6.770;2023-05-13T07:38:09;41.80;34.70
2647;DHT22;1333;50.958;6.770;2023-05-13T07:40:35;42.50;33.40
2647;DHT22;1333;50.958;6.770;2023-05-13T07:43:01;43.10;31.90
2647;DHT22;1333;50.958;6.770;2023-05-13T07:45:26;43.70;31.20
2647;DHT22;1333;50.958;6.770;2023-05-13T07:47:52;44.20;30.50
2647;DHT22;1333;50.958;6.770;2023-05-13T07:50:18;44.70;30.00
2647;DHT22;1333;50.958;6.770;2023-05-13T07:52:43;45.00;29.70
2647;DHT22;1333;50.958;6.770;2023-05-13T07:55:13;45.30;28.90
2647;DHT22;1333;50.958;6.770;2023-05-13T07:57:39;45.60;28.60
2647;DHT22;1333;50.958;6.770;2023-05-13T08:00:05;46.00;28.60
2647;DHT22;1333;50.958;6.770;2023-05-13T08:02:30;46.40;28.20
2647;DHT22;1333;50.958;6.770;2023-05-13T08:04:59;46.80;27.60
2647;DHT22;1333;50.958;6.770;2023-05-13T08:07:24;47.20;27.70
2647;DHT22;1333;50.958;6.770;2023-05-13T08:09:50;47.70;27.20
2647;DHT22;1333;50.958;6.770;2023-05-13T08:12:15;47.90;26.70
2647;DHT22;1333;50.958;6.770;2023-05-13T08:14:41;46.70;26.20
2647;DHT22;1333;50.958;6.770;2023-05-13T08:17:06;45.00;26.70
2647;DHT22;1333;50.958;6.770;2023-05-13T08:19:32;43.10;27.50
2647;DHT22;1333;50.958;6.770;2023-05-13T08:21:57;41.00;28.30
2647;DHT22;1333;50.958;6.770;2023-05-13T08:24:23;39.10;29.20
2647;DHT22;1333;50.958;6.770;2023-05-13T08:26:49;37.60;30.40
2647;DHT22;1333;50.958;6.770;2023-05-13T08:29:14;36.20;32.00
2647;DHT22;1333;50.958;6.770;2023-05-13T08:31:40;35.20;33.40
2647;DHT22;1333;50.958;6.770;2023-05-13T08:34:06;34.10;34.20
2647;DHT22;1333;50.958;6.770;2023-05-13T08:36:32;33.20;35.50
2647;DHT22;1333;50.958;6.770;2023-05-13T08:38:58;32.10;36.40
2647;DHT22;1333;50.958;6.770;2023-05-13T08:41:23;31.10;37.80
2647;DHT22;1333;50.958;6.770;2023-05-13T08:43:51;30.30;39.40
2647;DHT22;1333;50.958;6.770;2023-05-13T08:46:18;29.60;40.70
2647;DHT22;1333;50.958;6.770;2023-05-13T08:48:44;29.40;42.60
2647;DHT22;1333;50.958;6.770;2023-05-13T08:51:11;30.40;44.40
2647;DHT22;1333;50.958;6.770;2023-05-13T08:53:38;32.30;42.80
2647;DHT22;1333;50.958;6.770;2023-05-13T08:56:06;34.00;40.20
2647;DHT22;1333;50.958;6.770;2023-05-13T08:58:32;34.90;38.40
2647;DHT22;1333;50.958;6.770;2023-05-13T09:00:58;35.90;37.00
2647;DHT22;1333;50.958;6.770;2023-05-13T09:03:26;37.50;36.20
2647;DHT22;1333;50.958;6.770;2023-05-13T09:05:52;39.90;34.70
2647;DHT22;1333;50.958;6.770;2023-05-13T09:08:17;42.20;32.70
2647;DHT22;1333;50.958;6.770;2023-05-13T09:10:43;44.20;30.30
2647;DHT22;1333;50.958;6.770;2023-05-13T09:13:10;46.20;28.90
2647;DHT22;1333;50.958;6.770;2023-05-13T09:15:40;47.60;27.70
2647;DHT22;1333;50.958;6.770;2023-05-13T09:18:06;49.00;26.30
2647;DHT22;1333;50.958;6.770;2023-05-13T09:20:32;50.00;25.40
2647;DHT22;1333;50.958;6.770;2023-05-13T09:23:04;50.90;25.40
2647;DHT22;1333;50.958;6.770;2023-05-13T09:25:30;51.80;25.00
2647;DHT22;1333;50.958;6.770;2023-05-13T09:27:58;52.30;24.20
2647;DHT22;1333;50.958;6.770;2023-05-13T09:30:24;52.80;23.80
2647;DHT22;1333;50.958;6.770;2023-05-13T09:33:13;53.30;23.70
2647;DHT22;1333;50.958;6.770;2023-05-13T09:35:50;53.80;23.40
2647;DHT22;1333;50.958;6.770;2023-05-13T09:38:25;54.10;23.10
2647;DHT22;1333;50.958;6.770;2023-05-13T09:43:18;54.80;22.60
2647;DHT22;1333;50.958;6.770;2023-05-13T09:45:44;54.90;22.80
2647;DHT22;1333;50.958;6.770;2023-05-13T09:48:09;54.90;22.40
2647;DHT22;1333;50.958;6.770;2023-05-13T09:50:45;54.90;22.30
2647;DHT22;1333;50.958;6.770;2023-05-13T09:53:12;54.90;22.30
2647;DHT22;1333;50.958;6.770;2023-05-13T09:55:37;55.10;22.50
2647;DHT22;1333;50.958;6.770;2023-05-13T09:58:11;55.20;22.00
2647;DHT22;1333;50.958;6.770;2023-05-13T10:00:39;55.20;21.70
2647;DHT22;1333;50.958;6.770;2023-05-13T10:03:06;55.30;21.80
2647;DHT22;1333;50.958;6.770;2023-05-13T10:05:32;55.40;21.90
2647;DHT22;1333;50.958;6.770;2023-05-13T10:07:59;55.50;21.40
2647;DHT22;1333;50.958;6.770;2023-05-13T10:10:29;55.30;21.80
2647;DHT22;1333;50.958;6.770;2023-05-13T10:12:58;55.30;21.80
2647;DHT22;1333;50.958;6.770;2023-05-13T10:15:28;55.30;21.30
2647;DHT22;1333;50.958;6.770;2023-05-13T10:17:54;55.50;21.50
2647;DHT22;1333;50.958;6.770;2023-05-13T10:20:20;55.60;21.30
2647;DHT22;1333;50.958;6.770;2023-05-13T10:22:47;55.70;21.00
2647;DHT22;1333;50.958;6.770;2023-05-13T10:25:15;55.90;21.30
2647;DHT22;1333;50.958;6.770;2023-05-13T10:27:41;56.10;21.20
2647;DHT22;1333;50.958;6.770;2023-05-13T10:30:08;56.30;21.20
2647;DHT22;1333;50.958;6.770;2023-05-13T10:32:36;56.50;20.80
2647;DHT22;1333;50.958;6.770;2023-05-13T10:35:09;56.60;20.90
2647;DHT22;1333;50.958;6.770;2023-05-13T10:38:01;56.80;20.90
2647;DHT22;1333;50.958;6.770;2023-05-13T10:45:47;57.10;20.40
2647;DHT22;1333;50.958;6.770;2023-05-13T10:48:13;57.20;20.60
2647;DHT22;1333;50.958;6.770;2023-05-13T10:50:39;57.40;20.30
2647;DHT22;1333;50.958;6.770;2023-05-13T10:53:20;57.60;20.50
2647;DHT22;1333;50.958;6.770;2023-05-13T10:55:49;57.70;20.40
2647;DHT22;1333;50.958;6.770;2023-05-13T10:58:17;58.00;20.40
2647;DHT22;1333;50.958;6.770;2023-05-13T11:00:44;58.50;20.40
2647;DHT22;1333;50.958;6.770;2023-05-13T11:05:44;59.40;19.90
2647;DHT22;1333;50.958;6.770;2023-05-13T11:08:09;58.80;19.30
2647;DHT22;1333;50.958;6.770;2023-05-13T11:10:36;57.40;19.50
2647;DHT22;1333;50.958;6.770;2023-05-13T11:18:11;51.20;20.60
2647;DHT22;1333;50.958;6.770;2023-05-13T11:20:37;49.80;20.90
2647;DHT22;1333;50.958;6.770;2023-05-13T11:23:03;48.70;21.70
2647;DHT22;1333;50.958;6.770;2023-05-13T11:25:28;47.90;22.00
2647;DHT22;1333;50.958;6.770;2023-05-13T11:27:54;47.40;22.30
2647;DHT22;1333;50.958;6.770;2023-05-13T11:30:25;46.70;22.20
2647;DHT22;1333;50.958;6.770;2023-05-13T11:32:56;47.40;22.70
2647;DHT22;1333;50.958;6.770;2023-05-13T11:35:24;48.80;21.50
2647;DHT22;1333;50.958;6.770;2023-05-13T11:37:51;49.60;21.60
2647;DHT22;1333;50.958;6.770;2023-05-13T11:40:33;48.80;21.20
2647;DHT22;1333;50.958;6.770;2023-05-13T11:43:00;46.70;21.10
2647;DHT22;1333;50.958;6.770;2023-05-13T11:45:27;44.70;21.80
2647;DHT22;1333;50.958;6.770;2023-05-13T11:47:53;42.50;22.20
2647;DHT22;1333;50.958;6.770;2023-05-13T11:50:25;40.40;23.00
2647;DHT22;1333;50.958;6.770;2023-05-13T11:52:52;38.20;23.80
2647;DHT22;1333;50.958;6.770;2023-05-13T11:55:29;35.00;24.20
2647;DHT22;1333;50.958;6.770;2023-05-13T11:57:56;31.70;26.00
2647;DHT22;1333;50.958;6.770;2023-05-13T12:00:32;29.50;27.90
2647;DHT22;1333;50.958;6.770;2023-05-13T12:02:59;27.30;30.50
2647;DHT22;1333;50.958;6.770;2023-05-13T12:05:26;25.70;33.10
2647;DHT22;1333;50.958;6.770;2023-05-13T12:07:55;24.40;36.10
2647;DHT22;1333;50.958;6.770;2023-05-13T12:10:22;23.40;38.60
2647;DHT22;1333;50.958;6.770;2023-05-13T12:12:47;22.30;40.60
2647;DHT22;1333;50.958;6.770;2023-05-13T12:15:16;21.70;42.70
2647;DHT22;1333;50.958;6.770;2023-05-13T12:17:42;21.30;44.40
2647;DHT22;1333;50.958;6.770;2023-05-13T12:20:18;21.00;45.70
2647;DHT22;1333;50.958;6.770;2023-05-13T12:28:19;20.50;47.80
2647;DHT22;1333;50.958;6.770;2023-05-13T12:30:56;20.50;48.10
2647;DHT22;1333;50.958;6.770;2023-05-13T12:33:39;20.40;48.30
2647;DHT22;1333;50.958;6.770;2023-05-13T12:36:18;20.40;49.20
2647;DHT22;1333;50.958;6.770;2023-05-13T12:38:54;20.30;49.10
2647;DHT22;1333;50.958;6.770;2023-05-13T12:41:20;20.50;49.70
2647;DHT22;1333;50.958;6.770;2023-05-13T12:43:46;20.90;50.00
2647;DHT22;1333;50.958;6.770;2023-05-13T12:46:12;21.60;49.60
2647;DHT22;1333;50.958;6.770;2023-05-13T12:48:38;22.50;48.30
2647;DHT22;1333;50.958;6.770;2023-05-13T12:51:04;23.30;46.70
2647;DHT22;1333;50.958;6.770;2023-05-13T12:53:29;23.60;45.50
2647;DHT22;1333;50.958;6.770;2023-05-13T12:55:55;23.90;44.50
2647;DHT22;1333;50.958;6.770;2023-05-13T12:58:21;24.00;43.20
2647;DHT22;1333;50.958;6.770;2023-05-13T13:00:46;24.10;41.90
2647;DHT22;1333;50.958;6.770;2023-05-13T13:03:12;24.10;41.70
2647;DHT22;1333;50.958;6.770;2023-05-13T13:05:38;24.90;42.40
2647;DHT22;1333;50.958;6.770;2023-05-13T13:08:03;26.20;42.30
2647;DHT22;1333;50.958;6.770;2023-05-13T13:10:32;27.30;40.60
2647;DHT22;1333;50.958;6.770;2023-05-13T13:12:57;27.50;38.30
2647;DHT22;1333;50.958;6.770;2023-05-13T13:15:23;27.60;37.60
2647;DHT22;1333;50.958;6.770;2023-05-13T13:17:48;27.30;36.70
2647;DHT22;1333;50.958;6.770;2023-05-13T13:20:14;27.20;37.10
2647;DHT22;1333;50.958;6.770;2023-05-13T13:22:40;27.50;38.20
2647;DHT22;1333;50.958;6.770;2023-05-13T13:25:06;28.20;37.90
2647;DHT22;1333;50.958;6.770;2023-05-13T13:27:33;29.10;36.70
2647;DHT22;1333;50.958;6.770;2023-05-13T13:29:59;29.70;35.00
2647;DHT22;1333;50.958;6.770;2023-05-13T13:32:24;29.60;33.10
2647;DHT22;1333;50.958;6.770;2023-05-13T13:34:50;29.60;33.10
2647;DHT22;1333;50.958;6.770;2023-05-13T13:37:15;30.00;34.20
2647;DHT22;1333;50.958;6.770;2023-05-13T13:39:41;30.60;35.20
2647;DHT22;1333;50.958;6.770;2023-05-13T13:42:06;30.60;35.00
2647;DHT22;1333;50.958;6.770;2023-05-13T13:44:32;30.40;34.60
2647;DHT22;1333;50.958;6.770;2023-05-13T13:46:58;30.10;35.00
2647;DHT22;1333;50.958;6.770;2023-05-13T13:49:24;29.90;36.40
2647;DHT22;1333;50.958;6.770;2023-05-13T13:51:51;29.50;37.70
2647;DHT22;1333;50.958;6.770;2023-05-13T13:54:17;29.10;37.90
2647;DHT22;1333;50.958;6.770;2023-05-13T13:56:42;28.70;38.00
2647;DHT22;1333;50.958;6.770;2023-05-13T13:59:08;28.40;38.20
2647;DHT22;1333;50.958;6.770;2023-05-13T14:01:33;28.10;38.30
2647;DHT22;1333;50.958;6.770;2023-05-13T14:04:12;27.80;38.00
2647;DHT22;1333;50.958;6.770;2023-05-13T14:06:37;27.30;37.50
2647;DHT22;1333;50.958;6.770;2023-05-13T14:09:03;26.80;38.20
2647;DHT22;1333;50.958;6.770;2023-05-13T14:11:29;26.50;37.60
2647;DHT22;1333;50.958;6.770;2023-05-13T14:13:54;26.30;37.80
2647;DHT22;1333;50.958;6.770;2023-05-13T14:16:20;26.10;37.70
2647;DHT22;1333;50.958;6.770;2023-05-13T14:18:45;25.90;37.40
2647;DHT22;1333;50.958;6.770;2023-05-13T14:21:11;25.80;37.30
2647;DHT22;1333;50.958;6.770;2023-05-13T14:23:36;25.70;36.90
2647;DHT22;1333;50.958;6.770;2023-05-13T14:26:02;25.50;36.70
2647;DHT22;1333;50.958;6.770;2023-05-13T14:28:28;25.10;39.50
2647;DHT22;1333;50.958;6.770;2023-05-13T14:30:53;25.00;40.60
2647;DHT22;1333;50.958;6.770;2023-05-13T14:33:19;24.80;41.50
2647;DHT22;1333;50.958;6.770;2023-05-13T14:35:44;24.60;41.40
2647;DHT22;1333;50.958;6.770;2023-05-13T14:38:10;24.70;43.00
2647;DHT22;1333;50.958;6.770;2023-05-13T14:40:37;24.60;42.80
2647;DHT22;1333;50.958;6.770;2023-05-13T14:43:02;24.60;42.70
2647;DHT22;1333;50.958;6.770;2023-05-13T14:45:28;24.60;41.90
2647;DHT22;1333;50.958;6.770;2023-05-13T14:47:53;24.60;41.90
2647;DHT22;1333;50.958;6.770;2023-05-13T14:50:19;24.90;41.90
2647;DHT22;1333;50.958;6.770;2023-05-13T14:52:45;25.20;42.80
2647;DHT22;1333;50.958;6.770;2023-05-13T14:55:10;25.20;42.90
2647;DHT22;1333;50.958;6.770;2023-05-13T14:57:36;25.30;42.10
2647;DHT22;1333;50.958;6.770;2023-05-13T15:00:02;24.90;43.10
2647;DHT22;1333;50.958;6.770;2023-05-13T15:02:28;24.70;43.30
2647;DHT22;1333;50.958;6.770;2023-05-13T15:04:53;24.40;43.10
2647;DHT22;1333;50.958;6.770;2023-05-13T15:07:19;24.00;44.20
2647;DHT22;1333;50.958;6.770;2023-05-13T15:09:44;23.70;45.20
2647;DHT22;1333;50.958;6.770;2023-05-13T15:12:10;23.60;45.00
2647;DHT22;1333;50.958;6.770;2023-05-13T15:14:35;23.50;45.00
2647;DHT22;1333;50.958;6.770;2023-05-13T15:17:01;23.50;45.40
2647;DHT22;1333;50.958;6.770;2023-05-13T15:19:27;23.40;46.00
2647;DHT22;1333;50.958;6.770;2023-05-13T15:21:52;23.30;47.30
2647;DHT22;1333;50.958;6.770;2023-05-13T15:24:18;23.20;46.90
2647;DHT22;1333;50.958;6.770;2023-05-13T15:26:43;23.10;45.90
2647;DHT22;1333;50.958;6.770;2023-05-13T15:29:09;23.00;46.70
2647;DHT22;1333;50.958;6.770;2023-05-13T15:31:34;22.80;46.50
2647;DHT22;1333;50.958;6.770;2023-05-13T15:34:00;22.80;46.90
2647;DHT22;1333;50.958;6.770;2023-05-13T15:36:26;22.70;47.00
2647;DHT22;1333;50.958;6.770;2023-05-13T15:38:52;22.60;46.90
2647;DHT22;1333;50.958;6.770;2023-05-13T15:41:17;22.60;47.40
2647;DHT22;1333;50.958;6.770;2023-05-13T15:43:43;22.80;49.10
2647;DHT22;1333;50.958;6.770;2023-05-13T15:46:08;22.90;50.80
2647;DHT22;1333;50.958;6.770;2023-05-13T15:48:34;22.90;49.10
2647;DHT22;1333;50.958;6.770;2023-05-13T15:51:00;22.90;49.00
2647;DHT22;1333;50.958;6.770;2023-05-13T15:53:28;23.00;49.50
2647;DHT22;1333;50.958;6.770;2023-05-13T15:55:53;23.20;49.50
2647;DHT22;1333;50.958;6.770;2023-05-13T15:58:19;23.40;48.40
2647;DHT22;1333;50.958;6.770;2023-05-13T16:00:44;23.70;48.50
2647;DHT22;1333;50.958;6.770;2023-05-13T16:03:10;23.90;48.70
2647;DHT22;1333;50.958;6.770;2023-05-13T16:05:35;24.00;47.70
2647;DHT22;1333;50.958;6.770;2023-05-13T16:08:02;24.00;47.30
2647;DHT22;1333;50.958;6.770;2023-05-13T16:10:28;24.10;46.40
2647;DHT22;1333;50.958;6.770;2023-05-13T16:12:53;24.10;44.60
2647;DHT22;1333;50.958;6.770;2023-05-13T16:15:19;24.20;43.90
2647;DHT22;1333;50.958;6.770;2023-05-13T16:17:44;24.30;43.50
2647;DHT22;1333;50.958;6.770;2023-05-13T16:20:11;24.40;43.00
2647;DHT22;1333;50.958;6.770;2023-05-13T16:22:36;24.40;42.70